Weather at Ål Heliport, Medical Center

Public forecast

Using degrees Celsius for public forecast. Weather courtesy of forecast.io.

Closest aviation weather report (METAR) to Ål Heliport, Medical Center

Closest report is Sogndal Airport, Haukåsen, 52.3 nm (96.9 km) NW.

2024/07/21 03:50 (retrieved 26 minutes ago)

ENSG 210350Z AUTO 09003KT 020V120 9999 FEW118/// 18/12 Q1009 RMK WIND 3806FT 10016KT

Closest aviation forecast (TAF) to Ål Heliport, Medical Center

Forecast is more than 12 hours old.

Closest forecast is Ämari Air Base, 476.3 nm (882.1 km) E.

2024/07/19 07:00 Ammendment (retrieved 2 days ago)

TAF AMD EEEI 190750Z 1907/2006 CNL